Tasman Mariner — VRWW8 — position and weather

sailwx.info

Track history (hours):
 
Tides and Currents Weather Stations Pressure Air Temp Water Temp Dewpoint Dewpoint Depression Visibility Wind Speed Wind Dir Waves Ship Positions

Tasman Mariner

Last reported at 2014-Jul-18 08:31 UTC. Time now 2014-Aug-01 11:55 UTC.
Position S 26°37' E 153°15'.
Warning: this ship's position is 14 days out of date.

Length 184 m; beam 27 m; draft 10 m.

Type: Cargo ship. MMSI: 477860000.

Date/timePositionNaut miles runAvg speedWind from/ knotsBaromVisibWave heightAir tempDewpointWater temp
2014-Jul-18 08:31S 26°37' E 153°15'1111.7
2014-Jul-18 07:33S 26°47' E 153°11'1514.0
2014-Jul-18 06:31S 27°02' E 153°15'1313.4
2014-Jul-18 05:34S 27°14' E 153°20'1311.7
2014-Jul-18 04:30S 27°22' E 153°10'0 0.1
2014-Jul-18 03:29S 27°22' E 153°10'0 0.0
2014-Jul-18 02:26S 27°22' E 153°10'0 0.0
2014-Jul-18 01:29S 27°22' E 153°10'0 0.0
2014-Jul-18 00:32S 27°22' E 153°10'0 0.0
2014-Jul-17 23:32S 27°22' E 153°10'0 0.0
2014-Jul-17 22:32S 27°22' E 153°10'0 0.0
2014-Jul-17 21:32S 27°22' E 153°10'0 0.0
2014-Jul-17 20:32S 27°22' E 153°10'0 0.0
2014-Jul-17 19:32S 27°22' E 153°10'0 0.0
2014-Jul-17 18:32S 27°22' E 153°10'0 0.0
2014-Jul-17 17:29S 27°22' E 153°10'0 0.0
2014-Jul-17 16:32S 27°22' E 153°10'0 0.0
2014-Jul-17 15:32S 27°22' E 153°10'0 0.0
2014-Jul-17 14:32S 27°22' E 153°10'0 0.0
2014-Jul-17 13:32S 27°22' E 153°10'0 0.0
2014-Jul-17 12:32S 27°22' E 153°10'0 0.0
2014-Jul-17 11:32S 27°22' E 153°10'0 0.0
2014-Jul-17 10:32S 27°22' E 153°10'0 0.0
2014-Jul-17 09:32S 27°22' E 153°10'0 0.0
2014-Jul-17 08:32S 27°22' E 153°10'0 0.0
2014-Jul-17 07:29S 27°22' E 153°10'0 0.1
2014-Jul-17 06:33S 27°22' E 153°10'7 6.8
2014-Jul-17 05:33S 27°17' E 153°15'6 6.0
2014-Jul-17 04:33S 27°13' E 153°20'1313.0
2014-Jul-17 03:33S 27°01' E 153°15'1414.1
2014-Jul-17 02:33S 26°48' E 153°11'4 4.2
2014-Jul-17 01:33S 26°44' E 153°14'6 6.0
2014-Jul-17 00:33S 26°48' E 153°20'2311.4
2014-Jul-16 22:31S 27°04' E 153°39'1212.3
2014-Jul-16 21:33S 27°15' E 153°39'1212.3
2014-Jul-16 20:33S 27°28' E 153°40'1312.5
2014-Jul-16 19:33S 27°40' E 153°40'1312.5
2014-Jul-16 18:33S 27°53' E 153°40'1212.3
2014-Jul-16 17:33S 28°05' E 153°41'1212.1
2014-Jul-16 16:33S 28°17' E 153°42'24213.4
2014-Jul-15 22:29S 32°14' E 152°43'1414.7
2014-Jul-15 21:33S 32°27' E 152°38'1514.6
2014-Jul-15 20:33S 32°39' E 152°29'1514.8
2014-Jul-15 19:33S 32°51' E 152°19'1515.0
2014-Jul-15 18:33S 33°04' E 152°09'1515.0
2014-Jul-15 17:33S 33°16' E 151°59'19 0.6
2014-Jul-14 12:10S 32°59' E 151°50'4 6.8
2014-Jul-14 11:33S 32°55' E 151°47'2 2.0
2014-Jul-14 10:33S 32°54' E 151°46'0 0.0
2014-Jul-14 09:33S 32°54' E 151°46'0 0.0
2014-Jul-14 08:33S 32°54' E 151°46'0 0.0
2014-Jul-14 07:33S 32°54' E 151°46'0 0.0
2014-Jul-14 06:33S 32°54' E 151°46'0 0.0
2014-Jul-14 05:33S 32°54' E 151°46'0 0.0
2014-Jul-14 04:33S 32°54' E 151°46'0 0.0
2014-Jul-14 03:33S 32°54' E 151°46'0 0.0
2014-Jul-14 02:27S 32°54' E 151°46'0 0.0
2014-Jul-14 01:33S 32°54' E 151°46'0 0.0
2014-Jul-14 00:33S 32°54' E 151°46'0 0.0
2014-Jul-13 23:30S 32°54' E 151°46'0 0.0
2014-Jul-13 22:33S 32°54' E 151°46'0 0.0
2014-Jul-13 21:33S 32°54' E 151°46'0 0.0
2014-Jul-13 20:33S 32°54' E 151°46'0 0.0
2014-Jul-13 19:30S 32°54' E 151°46'0 0.0
2014-Jul-13 18:33S 32°54' E 151°46'0 0.0
2014-Jul-13 17:30S 32°54' E 151°46'0 0.0
2014-Jul-13 16:33S 32°54' E 151°46'0 0.0
2014-Jul-13 15:33S 32°54' E 151°46'0 0.0
2014-Jul-13 14:33S 32°54' E 151°46'0 0.0
2014-Jul-13 13:33S 32°54' E 151°46'0 0.0
2014-Jul-13 12:33S 32°54' E 151°46'0 0.0
2014-Jul-13 11:33S 32°54' E 151°46'0 0.0
2014-Jul-13 10:33S 32°54' E 151°46'0 0.0
2014-Jul-13 09:30S 32°54' E 151°46'0 0.0
2014-Jul-13 08:33S 32°54' E 151°46'0 0.0
2014-Jul-13 07:33S 32°54' E 151°46'0 0.0
2014-Jul-13 06:33S 32°54' E 151°46'0 0.0
2014-Jul-13 05:33S 32°54' E 151°46'0 0.0
2014-Jul-13 04:30S 32°54' E 151°46'0 0.0
2014-Jul-13 03:30S 32°54' E 151°46'0 0.0
2014-Jul-13 02:33S 32°54' E 151°46'0 0.0
2014-Jul-13 01:33S 32°54' E 151°46'0 0.0
2014-Jul-13 00:33S 32°54' E 151°46'4 3.6
2014-Jul-12 23:33S 32°55' E 151°50'18010.2
2014-Jul-12 06:00S 35°42' E 150°30'9413.9 210 / 201020.910.8 2.012.0 2.919.0
2014-Jul-11 23:15S 37°14' E 150°10'1115.9
2014-Jul-11 22:33S 37°25' E 150°09'1615.8
2014-Jul-11 21:33S 37°39' E 149°59'1616.0
2014-Jul-11 20:33S 37°51' E 149°46'3714.7
2014-Jul-11 18:00S 38°12' E 149°06'8515.1 290 / 261014.710.8 2.014.0 5.618.0
2014-Jul-11 12:23S 38°59' E 147°35'1315.6
2014-Jul-11 11:33S 39°02' E 147°19'1615.1
2014-Jul-11 10:31S 39°07' E 147°00'1515.0
2014-Jul-11 09:33S 39°13' E 146°43'1514.9
2014-Jul-11 08:33S 39°17' E 146°24'1615.4
2014-Jul-11 07:32S 39°12' E 146°05'1616.3
2014-Jul-11 06:32S 39°03' E 145°48'  
Track history (hours):
 
Tides and Currents Weather Stations Pressure Air Temp Water Temp Dewpoint Dewpoint Depression Visibility Wind Speed Wind Dir Waves Ship Positions

Tasman Mariner

Last reported at 2014-Jul-18 08:31 UTC. Time now 2014-Aug-01 11:55 UTC.
Position S 26°37' E 153°15'.
Warning: this ship's position is 14 days out of date.

Length 184 m; beam 27 m; draft 10 m.

Type: Cargo ship. MMSI: 477860000.

Date/timePositionNaut miles runAvg speedWind from/ knotsBaromVisibWave heightAir tempDewpointWater temp
2014-Jul-18 08:31S 26°37' E 153°15'1111.7
2014-Jul-18 07:33S 26°47' E 153°11'1514.0
2014-Jul-18 06:31S 27°02' E 153°15'1313.4
2014-Jul-18 05:34S 27°14' E 153°20'1311.7
2014-Jul-18 04:30S 27°22' E 153°10'0 0.1
2014-Jul-18 03:29S 27°22' E 153°10'0 0.0
2014-Jul-18 02:26S 27°22' E 153°10'0 0.0
2014-Jul-18 01:29S 27°22' E 153°10'0 0.0
2014-Jul-18 00:32S 27°22' E 153°10'0 0.0
2014-Jul-17 23:32S 27°22' E 153°10'0 0.0
2014-Jul-17 22:32S 27°22' E 153°10'0 0.0
2014-Jul-17 21:32S 27°22' E 153°10'0 0.0
2014-Jul-17 20:32S 27°22' E 153°10'0 0.0
2014-Jul-17 19:32S 27°22' E 153°10'0 0.0
2014-Jul-17 18:32S 27°22' E 153°10'0 0.0
2014-Jul-17 17:29S 27°22' E 153°10'0 0.0
2014-Jul-17 16:32S 27°22' E 153°10'0 0.0
2014-Jul-17 15:32S 27°22' E 153°10'0 0.0
2014-Jul-17 14:32S 27°22' E 153°10'0 0.0
2014-Jul-17 13:32S 27°22' E 153°10'0 0.0
2014-Jul-17 12:32S 27°22' E 153°10'0 0.0
2014-Jul-17 11:32S 27°22' E 153°10'0 0.0
2014-Jul-17 10:32S 27°22' E 153°10'0 0.0
2014-Jul-17 09:32S 27°22' E 153°10'0 0.0
2014-Jul-17 08:32S 27°22' E 153°10'0 0.0
2014-Jul-17 07:29S 27°22' E 153°10'0 0.1
2014-Jul-17 06:33S 27°22' E 153°10'7 6.8
2014-Jul-17 05:33S 27°17' E 153°15'6 6.0
2014-Jul-17 04:33S 27°13' E 153°20'1313.0
2014-Jul-17 03:33S 27°01' E 153°15'1414.1
2014-Jul-17 02:33S 26°48' E 153°11'4 4.2
2014-Jul-17 01:33S 26°44' E 153°14'6 6.0
2014-Jul-17 00:33S 26°48' E 153°20'2311.4
2014-Jul-16 22:31S 27°04' E 153°39'1212.3
2014-Jul-16 21:33S 27°15' E 153°39'1212.3
2014-Jul-16 20:33S 27°28' E 153°40'1312.5
2014-Jul-16 19:33S 27°40' E 153°40'1312.5
2014-Jul-16 18:33S 27°53' E 153°40'1212.3
2014-Jul-16 17:33S 28°05' E 153°41'1212.1
2014-Jul-16 16:33S 28°17' E 153°42'24213.4
2014-Jul-15 22:29S 32°14' E 152°43'1414.7
2014-Jul-15 21:33S 32°27' E 152°38'1514.6
2014-Jul-15 20:33S 32°39' E 152°29'1514.8
2014-Jul-15 19:33S 32°51' E 152°19'1515.0
2014-Jul-15 18:33S 33°04' E 152°09'1515.0
2014-Jul-15 17:33S 33°16' E 151°59'19 0.6
2014-Jul-14 12:10S 32°59' E 151°50'4 6.8
2014-Jul-14 11:33S 32°55' E 151°47'2 2.0
2014-Jul-14 10:33S 32°54' E 151°46'0 0.0
2014-Jul-14 09:33S 32°54' E 151°46'0 0.0
2014-Jul-14 08:33S 32°54' E 151°46'0 0.0
2014-Jul-14 07:33S 32°54' E 151°46'0 0.0
2014-Jul-14 06:33S 32°54' E 151°46'0 0.0
2014-Jul-14 05:33S 32°54' E 151°46'0 0.0
2014-Jul-14 04:33S 32°54' E 151°46'0 0.0
2014-Jul-14 03:33S 32°54' E 151°46'0 0.0
2014-Jul-14 02:27S 32°54' E 151°46'0 0.0
2014-Jul-14 01:33S 32°54' E 151°46'0 0.0
2014-Jul-14 00:33S 32°54' E 151°46'0 0.0
2014-Jul-13 23:30S 32°54' E 151°46'0 0.0
2014-Jul-13 22:33S 32°54' E 151°46'0 0.0
2014-Jul-13 21:33S 32°54' E 151°46'0 0.0
2014-Jul-13 20:33S 32°54' E 151°46'0 0.0
2014-Jul-13 19:30S 32°54' E 151°46'0 0.0
2014-Jul-13 18:33S 32°54' E 151°46'0 0.0
2014-Jul-13 17:30S 32°54' E 151°46'0 0.0
2014-Jul-13 16:33S 32°54' E 151°46'0 0.0
2014-Jul-13 15:33S 32°54' E 151°46'0 0.0
2014-Jul-13 14:33S 32°54' E 151°46'0 0.0
2014-Jul-13 13:33S 32°54' E 151°46'0 0.0
2014-Jul-13 12:33S 32°54' E 151°46'0 0.0
2014-Jul-13 11:33S 32°54' E 151°46'0 0.0
2014-Jul-13 10:33S 32°54' E 151°46'0 0.0
2014-Jul-13 09:30S 32°54' E 151°46'0 0.0
2014-Jul-13 08:33S 32°54' E 151°46'0 0.0
2014-Jul-13 07:33S 32°54' E 151°46'0 0.0
2014-Jul-13 06:33S 32°54' E 151°46'0 0.0
2014-Jul-13 05:33S 32°54' E 151°46'0 0.0
2014-Jul-13 04:30S 32°54' E 151°46'0 0.0
2014-Jul-13 03:30S 32°54' E 151°46'0 0.0
2014-Jul-13 02:33S 32°54' E 151°46'0 0.0
2014-Jul-13 01:33S 32°54' E 151°46'0 0.0
2014-Jul-13 00:33S 32°54' E 151°46'4 3.6
2014-Jul-12 23:33S 32°55' E 151°50'18010.2
2014-Jul-12 06:00S 35°42' E 150°30'9413.9 210 / 201020.910.8 2.012.0 2.919.0
2014-Jul-11 23:15S 37°14' E 150°10'1115.9
2014-Jul-11 22:33S 37°25' E 150°09'1615.8
2014-Jul-11 21:33S 37°39' E 149°59'1616.0
2014-Jul-11 20:33S 37°51' E 149°46'3714.7
2014-Jul-11 18:00S 38°12' E 149°06'8515.1 290 / 261014.710.8 2.014.0 5.618.0
2014-Jul-11 12:23S 38°59' E 147°35'1315.6
2014-Jul-11 11:33S 39°02' E 147°19'1615.1
2014-Jul-11 10:31S 39°07' E 147°00'1515.0
2014-Jul-11 09:33S 39°13' E 146°43'1514.9
2014-Jul-11 08:33S 39°17' E 146°24'1615.4
2014-Jul-11 07:32S 39°12' E 146°05'1616.3
2014-Jul-11 06:32S 39°03' E 145°48'  

Dump ship's entire track history